Terminal Aerodrome Forecast
Issued by NWS Springfield, MO

Home | Current Version | Previous Version | Text Only | Print | Product List | Glossary On
Versions: 1 2 3 4 5 6 7 8 9 10 11 12 13 14 15 16 17 18 19 20 21 22 23 24 25 26 27 28 29 30
000
FTUS43 KSGF 021400 AAA
TAFSGF
TAF AMD
KSGF 021411Z 0214/0312 21012KT P6SM FEW006 SCT050 OVC150
     FM021900 21010KT P6SM SCT050 SCT120
     FM022300 15007KT P6SM SCT120
     FM030700 14007KT P6SM VCSH SCT060 BKN100=

USA.gov is the U.S. government's official web portal to all federal, state and local government web resources and services.